Time;durP1;ratioP1;P1;durP2;ratioP2;P2;SDS_P1;SDS_P2;PMS_P1;PMS_P2;Temp;Humidity;BMP_temperature;BMP_pressure;BME280_temperature;BME280_humidity;BME280_pressure;Samples;Min_cycle;Max_cycle;Signal;HPM_P1;HPM_P2
2023/09/22 00:01:22;;;;;;;;;;;19.40;96.50;;;19.67;61.86;97423.75;5007709;28;122546;-90
2023/09/22 00:03:48;;;;;;;;;;;19.40;96.50;;;19.63;62.00;97412.50;5023016;27;123596;-89
2023/09/22 00:06:15;;;;;;;;;;;19.40;96.40;;;19.58;61.87;97424.13;5052931;27;108667;-91
2023/09/22 00:08:41;;;;;;;;;;;19.40;96.40;;;19.54;62.11;97409.34;5016782;28;107658;-90
2023/09/22 00:11:08;;;;;;;;;;;19.40;96.50;;;19.52;62.15;97411.75;5027905;27;123559;-90
2023/09/22 00:13:34;;;;;;;;;;;19.30;96.40;;;19.49;61.72;97423.78;5032203;27;123995;-90
2023/09/22 00:16:00;;;;;;;;;;;19.30;96.40;;;19.46;61.78;97424.59;5036735;27;109223;-91
2023/09/22 00:18:27;;;;;;;;;;;19.20;96.20;;;19.40;61.67;97424.22;5030000;27;108686;-90
2023/09/22 00:20:54;;;;;;;;;;;19.20;96.20;;;19.34;61.65;97423.84;5023104;27;123537;-91
2023/09/22 00:23:21;;;;;;;;;;;19.10;96.20;;;19.31;61.73;97412.63;5028529;27;124757;-91
2023/09/22 00:25:47;;;;;;;;;;;19.10;96.20;;;19.27;61.81;97406.25;5031638;27;109206;-91
2023/09/22 00:28:13;;;;;;;;;;;19.10;96.20;;;19.23;61.77;97411.84;5028974;28;108557;-92
2023/09/22 00:30:40;;;;;;;;;;;19.00;96.20;;;19.21;61.38;97403.06;5030286;27;124160;-90
2023/09/22 00:33:06;;;;;;;;;;;19.00;96.20;;;19.20;61.29;97395.84;5029494;27;124043;-91
2023/09/22 00:35:32;;;;;;;;;;;19.00;96.10;;;19.20;61.45;97390.25;5065320;27;109718;-91
2023/09/22 00:37:59;;;;;;;;;;;19.00;96.10;;;19.20;61.25;97387.44;5033567;27;109615;-91
2023/09/22 00:40:26;;;;;;;;;;;19.00;96.00;;;19.22;61.36;97389.84;5031296;27;123294;-91
2023/09/22 00:43:16;;;;;;;;;;;19.00;96.00;;;19.17;61.15;97405.84;5031605;27;122884;-90
2023/09/22 00:45:51;;;;;;;;;;;19.00;95.90;;;19.16;60.96;97411.88;5066341;27;110805;-90
2023/09/22 00:48:28;;;;;;;;;;;18.90;95.90;;;19.12;61.17;97422.25;5027801;27;108727;-91
2023/09/22 00:50:55;;;;;;;;;;;18.90;95.90;;;19.05;61.10;97437.09;5037071;27;123833;-92
2023/09/22 00:53:27;;;;;;;;;;;18.80;95.80;;;19.01;61.21;97443.88;5021141;27;123986;-91
2023/09/22 00:55:56;;;;;;;;;;;18.80;95.90;;;18.94;61.23;97450.28;5029444;27;109513;-92
2023/09/22 00:58:24;;;;;;;;;;;18.80;96.20;;;18.88;61.05;97447.09;5017291;28;107789;-90
2023/09/22 01:00:52;;;;;;;;;;;18.70;96.10;;;18.82;61.15;97434.69;5028691;27;124453;-90
2023/09/22 01:03:19;;;;;;;;;;;18.60;95.70;;;18.79;61.07;97448.72;5036121;27;123019;-90
2023/09/22 01:05:45;;;;;;;;;;;18.60;95.80;;;18.74;61.07;97433.06;5037234;27;109319;-92
2023/09/22 01:08:12;;;;;;;;;;;18.50;95.70;;;18.68;61.35;97434.69;5032869;27;109078;-92
2023/09/22 01:10:40;;;;;;;;;;;18.50;95.80;;;18.63;61.09;97433.09;5032163;27;124967;-90
2023/09/22 01:13:07;;;;;;;;;;;18.40;95.70;;;18.61;61.05;97426.28;5063407;27;123206;-91
2023/09/22 01:15:34;;;;;;;;;;;18.40;95.60;;;18.60;60.97;97417.09;5059825;27;109276;-91
2023/09/22 01:18:00;;;;;;;;;;;18.40;95.60;;;18.58;60.90;97399.13;5035180;27;108007;-91
2023/09/22 01:20:26;;;;;;;;;;;18.40;95.60;;;18.56;60.80;97396.72;5032389;27;123906;-91
2023/09/22 01:22:54;;;;;;;;;;;18.40;95.50;;;18.53;60.55;97411.50;5033132;27;123299;-90
2023/09/22 01:25:20;;;;;;;;;;;18.30;95.40;;;18.47;60.52;97408.31;5031375;27;110814;-90
2023/09/22 01:27:46;;;;;;;;;;;18.30;95.40;;;18.44;60.61;97399.91;5035180;27;109708;-91
2023/09/22 01:30:14;;;;;;;;;;;18.30;95.30;;;18.42;60.61;97394.72;5038707;27;124819;-92
2023/09/22 01:32:41;;;;;;;;;;;18.20;95.30;;;18.41;60.71;97395.13;5066001;27;123951;-93
2023/09/22 01:35:08;;;;;;;;;;;18.20;95.40;;;18.40;60.55;97405.50;5032341;27;108572;-94
2023/09/22 01:37:45;;;;;;;;;;;18.20;95.30;;;18.37;60.61;97414.69;5034654;27;108792;-92
2023/09/22 01:40:13;;;;;;;;;;;18.20;95.30;;;18.35;60.53;97425.50;5016824;27;123469;-92
2023/09/22 01:42:40;;;;;;;;;;;18.20;95.30;;;18.33;60.83;97422.28;5052076;27;123381;-93
2023/09/22 01:45:06;;;;;;;;;;;18.10;95.60;;;18.31;60.90;97430.25;5033316;28;109292;-93
2023/09/22 01:47:35;;;;;;;;;;;18.10;95.50;;;18.29;61.09;97435.44;5034841;27;108425;-91
2023/09/22 01:50:02;;;;;;;;;;;18.10;95.50;;;18.27;61.12;97423.88;5032637;28;124464;-91
2023/09/22 01:52:29;;;;;;;;;;;18.10;95.60;;;18.27;61.24;97435.84;5032650;28;124151;-92
2023/09/22 01:54:55;;;;;;;;;;;18.10;95.70;;;18.24;61.14;97430.25;5033142;27;109358;-92
2023/09/22 01:57:21;;;;;;;;;;;18.10;95.70;;;18.22;61.19;97415.88;5031470;28;109487;-94
2023/09/22 01:59:48;;;;;;;;;;;18.00;95.60;;;18.21;61.12;97403.88;5031551;27;124294;-91
2023/09/22 02:02:16;;;;;;;;;;;18.00;95.90;;;18.22;60.94;97415.88;5030562;27;123813;-92
2023/09/22 02:04:43;;;;;;;;;;;18.00;95.50;;;18.19;61.00;97405.47;5033400;27;109478;-92
2023/09/22 02:07:10;;;;;;;;;;;18.00;95.50;;;18.17;60.87;97391.13;5028491;27;107756;-93
2023/09/22 02:09:39;;;;;;;;;;;17.00;95.00;;;18.17;60.95;97402.28;5041508;27;124822;-92
2023/09/22 02:12:08;;;;;;;;;;;17.90;95.50;;;18.15;60.98;97410.28;5036034;27;122949;-92
2023/09/22 02:14:35;;;;;;;;;;;18.00;95.50;;;18.13;60.83;97412.66;5030635;27;112557;-92
2023/09/22 02:17:01;;;;;;;;;;;17.90;95.40;;;18.10;60.98;97403.06;5022181;27;108674;-91
2023/09/22 02:19:27;;;;;;;;;;;17.90;95.50;;;18.09;60.84;97413.44;5027681;28;124277;-92
2023/09/22 02:21:53;;;;;;;;;;;17.90;95.40;;;18.09;60.79;97412.66;5030964;27;124150;-92
2023/09/22 02:24:20;;;;;;;;;;;18.10;95.50;;;18.06;60.67;97419.84;5019995;27;109522;-92
2023/09/22 02:26:49;;;;;;;;;;;17.90;95.40;;;18.05;61.06;97412.66;5030916;27;108627;-92
2023/09/22 02:29:15;;;;;;;;;;;17.80;95.40;;;18.04;60.70;97427.81;5028434;27;123865;-92
2023/09/22 02:31:41;;;;;;;;;;;17.80;95.50;;;18.02;61.13;97427.41;5031913;27;123787;-92
2023/09/22 02:34:07;;;;;;;;;;;17.80;95.50;;;18.00;61.13;97427.03;5033040;28;109256;-91
2023/09/22 02:36:34;;;;;;;;;;;17.80;95.60;;;17.97;61.17;97433.38;5033364;27;107979;-92
2023/09/22 02:39:00;;;;;;;;;;;17.70;95.90;;;17.95;61.15;97413.44;5032110;27;124107;-91
2023/09/22 02:41:26;;;;;;;;;;;17.70;95.60;;;17.96;61.18;97411.44;5023593;27;124170;-93
2023/09/22 02:43:56;;;;;;;;;;;17.70;95.60;;;17.97;61.22;97422.19;5032272;27;109570;-91
2023/09/22 02:46:22;;;;;;;;;;;17.70;95.60;;;17.98;61.17;97429.41;5034669;28;107855;-93
2023/09/22 02:48:49;;;;;;;;;;;17.70;95.70;;;17.97;61.24;97433.38;5030753;27;124566;-92
2023/09/22 02:51:15;;;;;;;;;;;17.70;95.70;;;17.98;61.38;97439.78;5045737;27;123826;-91
2023/09/22 02:53:47;;;;;;;;;;;17.70;95.80;;;17.97;61.36;97438.16;5032098;28;109483;-92
2023/09/22 02:56:13;;;;;;;;;;;17.70;95.80;;;17.96;61.32;97440.16;5031387;27;108769;-92
2023/09/22 02:58:39;;;;;;;;;;;17.70;95.80;;;17.97;61.33;97435.38;5032132;27;124122;-92
2023/09/22 03:01:09;;;;;;;;;;;17.70;95.80;;;18.00;61.37;97437.38;5051355;27;123942;-92
2023/09/22 03:03:36;;;;;;;;;;;17.70;95.80;;;18.01;61.41;97417.44;5060425;27;110436;-91
2023/09/22 03:06:02;;;;;;;;;;;17.70;95.80;;;18.03;61.45;97409.47;5092968;27;110547;-92
2023/09/22 03:08:31;;;;;;;;;;;17.70;95.80;;;18.04;61.33;97413.84;5049531;27;123917;-92
2023/09/22 03:10:59;;;;;;;;;;;17.80;95.90;;;18.07;61.36;97392.69;5084716;27;124289;-91
2023/09/22 03:13:26;;;;;;;;;;;17.80;95.80;;;18.09;61.01;97396.69;5051975;27;107811;-92
2023/09/22 03:15:53;;;;;;;;;;;17.80;95.80;;;18.10;60.96;97409.44;5072644;27;109029;-92
2023/09/22 03:18:19;;;;;;;;;;;17.80;95.70;;;18.09;60.77;97424.63;5033166;27;124231;-91
2023/09/22 03:20:47;;;;;;;;;;;17.80;95.70;;;18.09;60.96;97426.63;5032354;27;123156;-93
2023/09/22 03:23:14;;;;;;;;;;;17.80;95.70;;;18.09;60.71;97424.63;5028431;27;109261;-93
2023/09/22 03:25:40;;;;;;;;;;;17.80;95.70;;;18.06;61.06;97436.59;5022863;27;109035;-92
2023/09/22 03:28:06;;;;;;;;;;;17.80;95.70;;;18.05;60.99;97439.78;5029829;27;124130;-92
2023/09/22 03:30:33;;;;;;;;;;;17.80;95.70;;;18.03;61.48;97428.22;5031050;27;124558;-92
2023/09/22 03:32:59;;;;;;;;;;;17.70;95.80;;;18.01;61.27;97431.41;5043215;27;108986;-93
2023/09/22 03:35:26;;;;;;;;;;;17.70;95.80;;;18.02;61.34;97435.00;5037362;27;107070;-93
2023/09/22 03:37:52;;;;;;;;;;;17.70;95.80;;;18.02;61.38;97472.13;5028636;28;125923;-91
2023/09/22 03:40:40;;;;;;;;;;;17.70;95.90;;;18.00;61.47;97468.94;5033371;27;123964;-93
2023/09/22 03:43:11;;;;;;;;;;;17.70;95.90;;;17.98;61.64;97485.31;5028205;27;109214;-91
2023/09/22 03:45:37;;;;;;;;;;;17.70;96.00;;;17.96;61.86;97493.28;5033870;27;107505;-92
2023/09/22 03:48:04;;;;;;;;;;;17.70;96.10;;;17.98;61.96;97495.69;5031010;27;123872;-92
2023/09/22 03:50:30;;;;;;;;;;;17.70;96.20;;;17.97;62.02;97506.03;5034491;27;123939;-91
2023/09/22 03:52:57;;;;;;;;;;;17.70;96.30;;;17.97;62.08;97508.84;5029069;27;110384;-91
2023/09/22 03:55:24;;;;;;;;;;;17.70;96.30;;;17.95;62.15;97493.69;5032630;27;109249;-92
2023/09/22 03:57:50;;;;;;;;;;;17.70;96.30;;;17.95;62.17;97485.28;5032468;28;122392;-92
2023/09/22 04:00:18;;;;;;;;;;;17.70;96.30;;;17.93;62.19;97480.09;5031214;27;124631;-93
2023/09/22 04:02:46;;;;;;;;;;;17.70;96.60;;;17.92;62.18;97472.91;5033732;27;110018;-91
2023/09/22 04:05:12;;;;;;;;;;;17.70;96.30;;;17.93;62.19;97457.72;5075222;27;108230;-92
2023/09/22 04:07:39;;;;;;;;;;;17.70;96.30;;;17.96;62.09;97448.56;5058777;27;124338;-91
2023/09/22 04:10:07;;;;;;;;;;;17.70;96.40;;;17.98;62.20;97440.59;5030459;27;123909;-91
2023/09/22 04:12:35;;;;;;;;;;;17.70;96.40;;;18.00;62.22;97440.16;5066135;27;110177;-91
2023/09/22 04:15:04;;;;;;;;;;;17.70;96.50;;;18.02;62.26;97427.41;5031712;27;108755;-92
2023/09/22 04:17:34;;;;;;;;;;;17.70;96.50;;;18.05;62.47;97428.59;5041678;27;122945;-91
2023/09/22 04:20:08;;;;;;;;;;;17.70;96.50;;;18.08;62.25;97427.81;5030092;27;123085;-93
2023/09/22 04:22:35;;;;;;;;;;;17.70;96.60;;;18.10;62.09;97443.00;5046169;27;109059;-93
2023/09/22 04:25:07;;;;;;;;;;;17.80;96.60;;;18.13;61.97;97451.78;5022607;27;108589;-92
2023/09/22 04:27:36;;;;;;;;;;;17.80;96.50;;;18.14;61.92;97445.81;5014916;28;123796;-92
2023/09/22 04:30:03;;;;;;;;;;;17.80;96.40;;;18.16;61.73;97445.41;5029313;27;124249;-92
2023/09/22 04:32:33;;;;;;;;;;;17.80;96.40;;;18.17;61.55;97453.41;5036199;27;109361;-94
2023/09/22 04:35:00;;;;;;;;;;;17.80;96.30;;;18.17;61.59;97459.00;5031110;27;108234;-92
2023/09/22 04:37:26;;;;;;;;;;;17.90;96.60;;;18.18;61.25;97452.19;5053045;27;123332;-91
2023/09/22 04:39:55;;;;;;;;;;;17.90;96.20;;;18.20;61.32;97451.81;5062413;27;124106;-91
2023/09/22 04:42:24;;;;;;;;;;;17.90;96.10;;;18.19;61.20;97444.59;5025660;27;110395;-93
2023/09/22 04:44:51;;;;;;;;;;;17.90;96.10;;;18.17;61.05;97435.84;5031130;27;109000;-91
2023/09/22 04:47:18;;;;;;;;;;;17.90;96.00;;;18.16;61.12;97445.41;5030073;27;123712;-90
2023/09/22 04:49:44;;;;;;;;;;;17.90;96.00;;;18.17;61.10;97455.41;5068512;27;124281;-90
2023/09/22 04:52:13;;;;;;;;;;;17.90;96.00;;;18.18;61.02;97449.41;5039414;27;108322;-91
2023/09/22 04:54:40;;;;;;;;;;;17.90;95.90;;;18.16;61.06;97440.63;5055892;27;108442;-91
2023/09/22 04:57:06;;;;;;;;;;;17.90;95.90;;;18.14;60.78;97443.03;5030313;27;124374;-90
2023/09/22 04:59:32;;;;;;;;;;;17.90;95.80;;;18.14;60.76;97448.63;5034800;28;123062;-91
2023/09/22 05:01:59;;;;;;;;;;;17.90;95.80;;;18.17;60.72;97458.19;5019653;27;109351;-92
2023/09/22 05:04:26;;;;;;;;;;;17.90;95.80;;;18.18;60.88;97448.59;5033418;27;108899;-89
2023/09/22 05:06:52;;;;;;;;;;;17.90;95.80;;;18.20;60.81;97447.03;5029164;27;123493;-90
2023/09/22 05:09:19;;;;;;;;;;;17.90;95.90;;;18.23;60.89;97446.22;5030027;27;124038;-90
2023/09/22 05:11:45;;;;;;;;;;;17.90;95.90;;;18.25;60.88;97448.63;5036146;27;109485;-90
2023/09/22 05:14:12;;;;;;;;;;;17.90;96.00;;;18.25;61.00;97443.84;5032685;27;108839;-90
2023/09/22 05:16:38;;;;;;;;;;;17.90;96.00;;;18.28;60.99;97459.81;5018577;28;123188;-90
2023/09/22 05:19:07;;;;;;;;;;;17.90;96.10;;;18.32;60.81;97465.41;5052116;27;123492;-90
2023/09/22 05:21:34;;;;;;;;;;;17.90;96.00;;;18.34;60.70;97463.03;5031238;27;114793;-90
2023/09/22 05:24:01;;;;;;;;;;;18.00;96.00;;;18.31;60.58;97467.41;5046369;27;113712;-90
2023/09/22 05:26:28;;;;;;;;;;;18.00;95.80;;;18.30;60.98;97465.03;5011284;28;124798;-89
2023/09/22 05:28:54;;;;;;;;;;;18.00;95.90;;;18.29;60.84;97471.78;5066154;27;124155;-89
2023/09/22 05:31:21;;;;;;;;;;;17.90;95.80;;;18.30;60.50;97484.59;5051977;27;114787;-90
2023/09/22 05:33:48;;;;;;;;;;;17.90;95.80;;;18.30;60.45;97487.41;5060707;27;115251;-90
2023/09/22 05:36:14;;;;;;;;;;;18.00;95.80;;;18.31;60.65;97494.56;5038202;27;124809;-92
2023/09/22 05:38:40;;;;;;;;;;;18.00;95.70;;;18.31;60.29;97519.75;5067275;27;123763;-91
2023/09/22 05:41:08;;;;;;;;;;;18.00;95.60;;;18.32;60.21;97524.13;5037311;27;113784;-90
2023/09/22 05:43:38;;;;;;;;;;;18.00;95.60;;;18.30;60.12;97518.16;5033523;27;113770;-91
2023/09/22 05:46:04;;;;;;;;;;;18.00;95.50;;;18.30;60.25;97523.75;5054751;27;123551;-92
2023/09/22 05:48:31;;;;;;;;;;;18.00;95.80;;;18.28;60.05;97521.31;5019052;28;122163;-91
2023/09/22 05:50:59;;;;;;;;;;;18.00;95.40;;;18.26;59.95;97522.91;5061471;27;113780;-91
2023/09/22 05:53:27;;;;;;;;;;;18.00;95.40;;;18.24;60.22;97526.13;5010263;28;112884;-91
2023/09/22 05:56:08;;;;;;;;;;;18.00;95.70;;;18.23;60.52;97534.91;5033757;27;124770;-93
2023/09/22 05:58:37;;;;;;;;;;;17.90;95.40;;;18.23;60.46;97540.50;5032331;27;124298;-93
2023/09/22 06:01:11;;;;;;;;;;;18.00;95.50;;;18.24;60.24;97544.88;5074672;27;114206;-90
2023/09/22 06:03:38;;;;;;;;;;;18.00;95.50;;;18.23;60.25;97544.06;5038019;27;113741;-91
2023/09/22 06:06:05;;;;;;;;;;;18.00;95.50;;;18.22;60.13;97550.09;5020529;27;122450;-91
2023/09/22 06:08:32;;;;;;;;;;;17.90;95.40;;;18.19;60.05;97550.84;5028637;27;124113;-91
2023/09/22 06:10:59;;;;;;;;;;;17.90;95.40;;;18.20;60.11;97544.06;5034067;27;114868;-92
2023/09/22 06:13:27;;;;;;;;;;;17.90;95.50;;;18.20;60.24;97546.88;5035201;27;114702;-90
2023/09/22 06:15:56;;;;;;;;;;;17.90;95.50;;;18.20;60.13;97558.84;5071182;27;124176;-90
2023/09/22 06:18:26;;;;;;;;;;;17.90;95.40;;;18.18;60.25;97569.63;5073611;27;123196;-91
2023/09/22 06:20:57;;;;;;;;;;;17.90;95.80;;;18.15;60.20;97566.81;5038381;27;114564;-92
2023/09/22 06:23:31;;;;;;;;;;;17.90;95.50;;;18.12;60.36;97560.00;5054371;27;114292;-92
2023/09/22 06:26:02;;;;;;;;;;;17.80;95.40;;;18.12;60.34;97559.22;5034009;27;124656;-92
2023/09/22 06:28:32;;;;;;;;;;;17.80;95.40;;;18.12;60.21;97579.59;5040209;27;124196;-92
2023/09/22 06:31:03;;;;;;;;;;;17.80;95.40;;;18.15;60.31;97584.38;5043829;27;112925;-91
2023/09/22 06:33:32;;;;;;;;;;;17.90;95.50;;;18.17;60.15;97579.22;5055804;27;112992;-88
2023/09/22 06:36:03;;;;;;;;;;;17.90;95.50;;;18.18;60.13;97572.41;5059158;27;123936;-91
2023/09/22 06:38:36;;;;;;;;;;;17.90;95.40;;;18.20;60.11;97563.66;5040990;27;123029;-91
2023/09/22 06:41:04;;;;;;;;;;;17.90;95.40;;;18.22;60.08;97572.44;5053375;27;113576;-90
2023/09/22 06:43:31;;;;;;;;;;;17.90;95.40;;;18.23;59.84;97571.25;5040002;27;114545;-93
2023/09/22 06:46:02;;;;;;;;;;;17.90;95.30;;;18.24;59.78;97578.44;5043748;27;122713;-93
2023/09/22 06:48:31;;;;;;;;;;;17.90;95.40;;;18.26;59.89;97567.66;5018178;27;123054;-92
2023/09/22 06:50:58;;;;;;;;;;;17.90;95.30;;;18.29;59.90;97580.84;5059073;27;114496;-92
2023/09/22 06:53:26;;;;;;;;;;;17.90;95.30;;;18.29;59.65;97569.66;5058406;27;113498;-92
2023/09/22 06:56:11;;;;;;;;;;;18.00;95.30;;;18.32;59.56;97571.66;5067182;27;124962;-89
2023/09/22 06:58:41;;;;;;;;;;;18.00;95.20;;;18.32;59.54;97566.06;5029032;28;124050;-89
2023/09/22 07:01:10;;;;;;;;;;;18.00;95.20;;;18.29;59.67;97547.28;5022617;27;114407;-90
2023/09/22 07:03:38;;;;;;;;;;;18.00;95.20;;;18.30;59.45;97552.50;5033015;27;112846;-90
2023/09/22 07:06:07;;;;;;;;;;;18.00;95.20;;;18.31;59.42;97547.69;5016649;27;123380;-89
2023/09/22 07:08:34;;;;;;;;;;;18.00;95.20;;;18.33;59.53;97557.28;5029511;27;124706;-91
2023/09/22 07:11:04;;;;;;;;;;;18.00;95.20;;;18.38;59.54;97566.50;5030706;27;114388;-90
2023/09/22 07:13:30;;;;;;;;;;;18.00;95.20;;;18.40;59.32;97556.50;5035514;27;114638;-89
2023/09/22 07:15:59;;;;;;;;;;;18.10;95.20;;;18.45;59.23;97552.53;5067591;27;124279;-91
2023/09/22 07:18:26;;;;;;;;;;;18.10;95.20;;;18.48;59.21;97535.78;5014942;27;121951;-90
2023/09/22 07:20:53;;;;;;;;;;;18.10;95.10;;;18.53;59.09;97543.75;5013393;28;114212;-91
2023/09/22 07:23:21;;;;;;;;;;;18.20;95.10;;;18.56;59.02;97547.75;5025681;27;113378;-92
2023/09/22 07:26:08;;;;;;;;;;;18.20;95.10;;;18.57;59.08;97556.97;5029789;27;125094;-92
2023/09/22 07:28:35;;;;;;;;;;;18.20;95.00;;;18.60;58.84;97570.97;5028951;27;125444;-91
2023/09/22 07:31:14;;;;;;;;;;;18.20;95.00;;;18.60;58.85;97570.16;5028498;27;114548;-91
2023/09/22 07:33:42;;;;;;;;;;;18.20;94.90;;;18.58;58.68;97567.75;5028476;27;113716;-91
2023/09/22 07:36:09;;;;;;;;;;;18.30;94.90;;;18.57;58.81;97563.38;5011983;28;123592;-90
2023/09/22 07:38:36;;;;;;;;;;;18.30;94.80;;;18.60;58.77;97570.16;5031432;27;123807;-90
2023/09/22 07:41:02;;;;;;;;;;;18.30;94.80;;;18.58;58.51;97575.34;5030325;27;114498;-90
2023/09/22 07:43:31;;;;;;;;;;;18.30;94.70;;;18.56;58.42;97572.94;5026987;27;113582;-94
2023/09/22 07:45:58;;;;;;;;;;;18.30;94.60;;;18.55;58.47;97585.34;5028204;27;123635;-88
2023/09/22 07:48:27;;;;;;;;;;;18.30;94.60;;;18.54;58.61;97595.72;5013204;28;123778;-90
2023/09/22 07:50:53;;;;;;;;;;;18.30;94.60;;;18.53;58.58;97605.28;5031429;27;114360;-91
2023/09/22 07:53:20;;;;;;;;;;;18.30;94.60;;;18.52;58.56;97602.91;5059673;27;113976;-89
2023/09/22 07:55:47;;;;;;;;;;;18.20;94.60;;;18.53;58.68;97610.09;5029997;27;123874;-89
2023/09/22 07:58:14;;;;;;;;;;;18.30;94.90;;;18.53;58.85;97608.09;5013095;28;123257;-88
2023/09/22 08:00:44;;;;;;;;;;;18.20;94.60;;;18.54;58.76;97590.13;5046470;27;114506;-89
2023/09/22 08:03:11;;;;;;;;;;;18.30;94.60;;;18.57;58.65;97593.34;5031272;27;114898;-90
2023/09/22 08:05:39;;;;;;;;;;;18.30;94.70;;;18.55;58.52;97605.72;5013562;28;123274;-88
2023/09/22 08:08:06;;;;;;;;;;;18.30;94.70;;;18.55;58.82;97618.91;5027635;27;123930;-88
2023/09/22 08:10:32;;;;;;;;;;;18.30;94.70;;;18.53;58.62;97616.50;5026342;27;114436;-86
2023/09/22 08:12:59;;;;;;;;;;;18.20;94.60;;;18.49;58.60;97612.88;5060227;27;113704;-86
2023/09/22 08:15:26;;;;;;;;;;;18.20;94.70;;;18.47;58.99;97615.28;5025091;27;124089;-90
2023/09/22 08:17:52;;;;;;;;;;;18.20;94.80;;;18.47;59.05;97603.28;5011537;27;123087;-88
2023/09/22 08:20:19;;;;;;;;;;;18.20;94.80;;;18.47;59.00;97604.09;5031315;27;113442;-88
2023/09/22 08:22:48;;;;;;;;;;;18.20;94.80;;;18.51;58.93;97616.09;5046909;27;112979;-90
2023/09/22 08:25:16;;;;;;;;;;;18.20;94.90;;;18.55;59.26;97614.09;5044912;27;123763;-87
2023/09/22 08:27:44;;;;;;;;;;;18.20;94.90;;;18.60;58.93;97623.31;5030474;27;124063;-87
2023/09/22 08:30:13;;;;;;;;;;;18.30;94.90;;;18.67;58.78;97621.34;5030009;27;115026;-87
2023/09/22 08:32:41;;;;;;;;;;;18.30;94.90;;;18.71;58.54;97626.94;5028043;27;113938;-88
2023/09/22 08:35:12;;;;;;;;;;;18.30;94.80;;;18.75;58.65;97616.56;5027313;27;124279;-90
2023/09/22 08:37:42;;;;;;;;;;;18.40;94.80;;;18.79;58.48;97617.41;5046007;27;122059;-88
2023/09/22 08:40:17;;;;;;;;;;;18.40;94.80;;;18.81;58.46;97623.41;5009903;27;114284;-91
2023/09/22 08:42:46;;;;;;;;;;;18.40;94.80;;;18.82;58.19;97627.81;5011279;27;113712;-88
2023/09/22 08:45:15;;;;;;;;;;;18.40;94.70;;;18.84;58.34;97622.63;5023678;28;124836;-89
2023/09/22 08:47:45;;;;;;;;;;;18.50;94.70;;;18.87;58.18;97621.81;5027924;28;123956;-90
2023/09/22 08:50:15;;;;;;;;;;;18.50;94.70;;;18.87;58.09;97633.00;5008981;27;114465;-88
2023/09/22 08:52:43;;;;;;;;;;;18.50;94.60;;;18.90;58.21;97618.22;5018742;27;114593;-88
2023/09/22 08:55:14;;;;;;;;;;;18.50;94.60;;;18.95;57.94;97615.03;5044565;27;123604;-92
2023/09/22 08:57:44;;;;;;;;;;;18.50;94.50;;;18.98;57.65;97624.63;5062490;27;123211;-88
2023/09/22 09:00:20;;;;;;;;;;;18.60;94.50;;;18.99;57.81;97631.81;5032731;27;114283;-88
2023/09/22 09:02:48;;;;;;;;;;;18.60;94.40;;;19.00;57.70;97627.06;5044495;27;113255;-85
2023/09/22 09:05:31;;;;;;;;;;;18.60;94.30;;;19.02;57.69;97627.44;5036488;27;124412;-87
2023/09/22 09:08:14;;;;;;;;;;;18.70;94.30;;;19.06;57.67;97633.84;5025754;27;124526;-89
2023/09/22 09:10:42;;;;;;;;;;;18.70;94.30;;;19.09;57.50;97630.25;5027883;27;114649;-90
2023/09/22 09:13:17;;;;;;;;;;;18.70;94.20;;;19.14;57.29;97627.06;5026161;27;114510;-89
2023/09/22 09:15:49;;;;;;;;;;;18.80;94.30;;;19.15;57.50;97623.06;5041660;27;123897;-86
2023/09/22 09:18:20;;;;;;;;;;;18.80;94.20;;;19.19;57.54;97640.66;5026156;27;123947;-86
2023/09/22 09:20:51;;;;;;;;;;;18.80;94.20;;;19.22;57.25;97639.06;5026506;27;114488;-89
2023/09/22 09:23:19;;;;;;;;;;;18.80;94.10;;;19.25;57.11;97636.28;5041653;27;113629;-88
2023/09/22 09:25:46;;;;;;;;;;;18.90;94.10;;;19.25;57.28;97650.28;5030428;27;123860;-86
2023/09/22 09:28:17;;;;;;;;;;;18.90;94.10;;;19.24;57.09;97659.88;5062901;27;124046;-89
2023/09/22 09:30:52;;;;;;;;;;;18.90;94.10;;;19.22;57.34;97661.47;5030809;28;114583;-87
2023/09/22 09:33:23;;;;;;;;;;;18.90;94.10;;;19.17;57.33;97657.84;5043050;27;113609;-85
2023/09/22 09:35:54;;;;;;;;;;;18.90;94.00;;;19.18;57.44;97651.06;5036518;27;124532;-85
2023/09/22 09:38:24;;;;;;;;;;;18.90;94.00;;;19.22;57.44;97655.88;5033448;27;123567;-92
2023/09/22 09:40:51;;;;;;;;;;;18.90;94.10;;;19.22;57.45;97673.47;5044955;27;114484;-89
2023/09/22 09:43:17;;;;;;;;;;;18.90;94.10;;;19.23;57.30;97680.66;5027727;27;113779;-90
2023/09/22 09:45:47;;;;;;;;;;;18.90;94.10;;;19.23;57.37;97654.66;5026133;27;124245;-87
2023/09/22 09:48:16;;;;;;;;;;;18.90;94.10;;;19.26;57.59;97629.47;5064507;27;123377;-89
2023/09/22 09:50:53;;;;;;;;;;;18.90;94.20;;;19.32;57.29;97633.47;5020266;28;114119;-85
2023/09/22 09:53:32;;;;;;;;;;;19.00;94.20;;;19.42;57.19;97635.50;5061211;27;113705;-88
2023/09/22 09:56:03;;;;;;;;;;;19.00;94.30;;;19.46;57.20;97655.09;5029760;27;123996;-88
2023/09/22 09:58:33;;;;;;;;;;;19.10;94.30;;;19.46;57.39;97649.50;5056874;27;122313;-88
2023/09/22 10:01:01;;;;;;;;;;;19.10;94.10;;;19.49;57.08;97647.88;5001272;27;113373;-87
2023/09/22 10:03:28;;;;;;;;;;;19.10;94.10;;;19.51;57.10;97649.09;5064186;27;113735;-88
2023/09/22 10:05:58;;;;;;;;;;;19.10;94.10;;;19.56;57.27;97645.91;5025777;27;123484;-88
2023/09/22 10:08:26;;;;;;;;;;;19.20;94.10;;;19.57;56.80;97641.09;5028091;27;124323;-87
2023/09/22 10:10:56;;;;;;;;;;;19.20;94.00;;;19.61;57.03;97636.25;5028181;27;114527;-89
2023/09/22 10:13:22;;;;;;;;;;;19.20;93.90;;;19.65;56.80;97628.66;5039023;27;113569;-88
2023/09/22 10:15:57;;;;;;;;;;;19.30;94.00;;;19.74;56.47;97619.88;5035696;27;124050;-88
2023/09/22 10:18:46;;;;;;;;;;;19.30;93.90;;;19.81;56.54;97609.47;5034788;27;122916;-88
2023/09/22 10:21:51;;;;;;;;;;;19.40;93.90;;;19.87;55.92;97618.25;5020182;27;114078;-88
2023/09/22 10:24:27;;;;;;;;;;;19.40;93.60;;;19.86;55.76;97620.25;5010417;27;114017;-88
2023/09/22 10:26:56;;;;;;;;;;;19.50;93.40;;;19.89;55.13;97621.47;5031824;27;123910;-88
2023/09/22 10:29:35;;;;;;;;;;;19.50;93.20;;;19.89;54.92;97609.44;5029884;27;124281;-87
2023/09/22 10:32:21;;;;;;;;;;;19.50;93.00;;;19.92;54.68;97614.25;5022766;27;115080;-88
2023/09/22 10:35:03;;;;;;;;;;;19.50;92.90;;;19.99;54.52;97617.03;5024054;27;114994;-86
2023/09/22 10:37:32;;;;;;;;;;;19.50;92.80;;;20.08;54.54;97623.81;5008330;28;123433;-86
2023/09/22 10:39:58;;;;;;;;;;;19.60;92.80;;;20.19;54.28;97617.38;5067386;27;123796;-87
2023/09/22 10:42:26;;;;;;;;;;;19.70;92.80;;;20.32;53.55;97612.13;5060591;27;113698;-86
2023/09/22 10:45:00;;;;;;;;;;;19.80;92.50;;;20.42;52.72;97626.13;5060226;27;113151;-86
2023/09/22 10:47:40;;;;;;;;;;;19.90;91.90;;;20.50;52.46;97618.47;5026930;27;124498;-88
2023/09/22 10:50:18;;;;;;;;;;;20.00;91.90;;;20.61;51.93;97615.66;5027603;27;123027;-88
2023/09/22 10:52:53;;;;;;;;;;;20.10;91.50;;;20.72;51.55;97611.56;5044329;27;114023;-89
2023/09/22 10:55:26;;;;;;;;;;;20.20;91.30;;;20.85;50.98;97616.72;5030353;27;113934;-86
2023/09/22 10:57:55;;;;;;;;;;;20.20;91.10;;;20.96;50.76;97615.44;5030885;27;124245;-86
2023/09/22 11:00:22;;;;;;;;;;;20.40;90.80;;;21.07;50.14;97617.38;5059131;27;124026;-87
2023/09/22 11:02:49;;;;;;;;;;;20.50;90.60;;;21.10;48.94;97617.34;5059646;27;114327;-87
2023/09/22 11:05:18;;;;;;;;;;;20.50;90.00;;;21.11;48.83;97604.88;5036560;27;112789;-86
2023/09/22 11:07:46;;;;;;;;;;;20.60;89.30;;;21.14;48.93;97608.88;5052198;27;123620;-86
2023/09/22 11:10:19;;;;;;;;;;;20.60;89.30;;;21.11;48.12;97607.69;5041024;27;123031;-85
2023/09/22 11:12:50;;;;;;;;;;;20.60;87.50;;;21.08;48.56;97611.34;5018891;27;113540;-86
2023/09/22 11:15:23;;;;;;;;;;;20.70;87.80;;;21.11;48.37;97618.94;5035702;27;113224;-86
2023/09/22 11:17:49;;;;;;;;;;;20.70;87.60;;;21.13;48.33;97619.31;5050245;27;123765;-87